Time;durP1;ratioP1;P1;durP2;ratioP2;P2;SDS_P1;SDS_P2;PMS_P1;PMS_P2;Temp;Humidity;BMP_temperature;BMP_pressure;BME280_temperature;BME280_humidity;BME280_pressure;Samples;Min_cycle;Max_cycle;Signal;HPM_P1;HPM_P2
2022/04/28 00:01:28;;;;;;;;;;;19.10;99.90;;;;;;5114384;28;20391;-48
2022/04/28 00:03:54;;;;;;;;;;;19.10;99.90;;;;;;5114359;28;19918;-48
2022/04/28 00:06:19;;;;;;;;;;;19.10;99.90;;;;;;5114245;28;19914;-46
2022/04/28 00:08:45;;;;;;;;;;;19.10;99.90;;;;;;5114154;28;20346;-48
2022/04/28 00:11:11;;;;;;;;;;;19.10;99.90;;;;;;5114509;28;19908;-47
2022/04/28 00:13:37;;;;;;;;;;;19.00;99.90;;;;;;5095871;28;19908;-47
2022/04/28 00:16:03;;;;;;;;;;;19.10;99.90;;;;;;5113764;28;19964;-48
2022/04/28 00:18:29;;;;;;;;;;;19.10;99.90;;;;;;5114111;28;19994;-47
2022/04/28 00:20:54;;;;;;;;;;;19.10;99.90;;;;;;5113687;28;20277;-47
2022/04/28 00:23:20;;;;;;;;;;;19.10;99.90;;;;;;5114021;28;19911;-46
2022/04/28 00:25:45;;;;;;;;;;;19.10;99.90;;;;;;5098548;28;20304;-49
2022/04/28 00:28:11;;;;;;;;;;;19.10;99.90;;;;;;5117475;28;19908;-47
2022/04/28 00:30:36;;;;;;;;;;;19.10;99.90;;;;;;5099563;28;20277;-51
2022/04/28 00:33:02;;;;;;;;;;;19.10;99.90;;;;;;5099136;28;20294;-46
2022/04/28 00:35:27;;;;;;;;;;;19.00;99.90;;;;;;5117325;28;19915;-46
2022/04/28 00:37:53;;;;;;;;;;;19.00;99.90;;;;;;5117327;28;19908;-47
2022/04/28 00:40:18;;;;;;;;;;;19.00;99.90;;;;;;5117052;28;19923;-48
2022/04/28 00:42:44;;;;;;;;;;;19.10;99.90;;;;;;5117465;28;19919;-47
2022/04/28 00:45:09;;;;;;;;;;;19.00;99.90;;;;;;5117181;28;19941;-48
2022/04/28 00:50:38;;;;;;;;;;;19.00;99.90;;;;;;5117155;28;19915;-47
2022/04/28 00:53:07;;;;;;;;;;;19.00;99.90;;;;;;5117390;28;19908;-47
2022/04/28 00:55:32;;;;;;;;;;;19.00;99.90;;;;;;5116910;28;20093;-47
2022/04/28 00:57:58;;;;;;;;;;;19.00;99.90;;;;;;5116917;28;19935;-46
2022/04/28 01:00:23;;;;;;;;;;;19.00;99.90;;;;;;5116827;28;20289;-49
2022/04/28 01:02:49;;;;;;;;;;;19.00;99.90;;;;;;5117133;28;19912;-52
2022/04/28 01:05:14;;;;;;;;;;;19.00;99.90;;;;;;5117121;28;20356;-49
2022/04/28 01:07:41;;;;;;;;;;;19.00;99.90;;;;;;5098788;28;19962;-48
2022/04/28 01:10:06;;;;;;;;;;;19.00;99.90;;;;;;5117036;28;19908;-49
2022/04/28 01:12:32;;;;;;;;;;;18.90;99.90;;;;;;5116980;28;19914;-50
2022/04/28 01:14:58;;;;;;;;;;;19.00;99.90;;;;;;5116937;28;19907;-51
2022/04/28 01:17:24;;;;;;;;;;;19.00;99.90;;;;;;5117113;28;19907;-50
2022/04/28 01:19:49;;;;;;;;;;;19.00;99.90;;;;;;5116853;28;20342;-49
2022/04/28 01:22:15;;;;;;;;;;;19.00;99.90;;;;;;5116763;28;19912;-49
2022/04/28 01:24:40;;;;;;;;;;;19.00;99.90;;;;;;5116596;28;19911;-47
2022/04/28 01:27:06;;;;;;;;;;;19.00;99.90;;;;;;5116455;28;19908;-50
2022/04/28 01:29:33;;;;;;;;;;;18.90;99.90;;;;;;5116616;28;19907;-52
2022/04/28 01:31:58;;;;;;;;;;;18.90;99.90;;;;;;5116157;28;19927;-47
2022/04/28 01:34:24;;;;;;;;;;;18.90;99.90;;;;;;5098201;28;19908;-47
2022/04/28 01:36:49;;;;;;;;;;;18.90;99.90;;;;;;5115241;28;19915;-47
2022/04/28 01:39:15;;;;;;;;;;;18.90;99.90;;;;;;5116380;28;19915;-47
2022/04/28 01:41:42;;;;;;;;;;;18.90;99.90;;;;;;5115968;28;19977;-47
2022/04/28 01:44:07;;;;;;;;;;;18.90;99.90;;;;;;5097990;28;19937;-47
2022/04/28 01:46:33;;;;;;;;;;;18.90;99.90;;;;;;5116184;28;20010;-47
2022/04/28 01:48:59;;;;;;;;;;;18.90;99.90;;;;;;5115753;28;19915;-46
2022/04/28 01:56:52;;;;;;;;;;;18.90;99.90;;;;;;5115892;28;19962;-48
2022/04/28 01:59:18;;;;;;;;;;;19.00;99.90;;;;;;5116017;28;19951;-49
2022/04/28 02:01:43;;;;;;;;;;;18.90;99.90;;;;;;5115858;28;20007;-49
2022/04/28 02:04:09;;;;;;;;;;;18.90;99.90;;;;;;5115613;28;20318;-46
2022/04/28 02:06:34;;;;;;;;;;;18.90;99.90;;;;;;5116161;28;20006;-48
2022/04/28 02:09:00;;;;;;;;;;;18.90;99.90;;;;;;5115828;28;19907;-49
2022/04/28 02:11:25;;;;;;;;;;;18.90;99.90;;;;;;5115391;28;20344;-47
2022/04/28 02:13:51;;;;;;;;;;;18.90;99.90;;;;;;5115651;28;19963;-49
2022/04/28 02:16:17;;;;;;;;;;;18.90;99.90;;;;;;5115324;28;19908;-46
2022/04/28 02:18:43;;;;;;;;;;;18.90;99.90;;;;;;5115601;28;19911;-49
2022/04/28 02:21:09;;;;;;;;;;;18.90;99.90;;;;;;5115272;28;20361;-48
2022/04/28 02:23:34;;;;;;;;;;;18.90;99.90;;;;;;5097246;28;19911;-46
2022/04/28 02:26:00;;;;;;;;;;;18.90;99.90;;;;;;5097218;28;19955;-47
2022/04/28 02:28:25;;;;;;;;;;;18.90;99.90;;;;;;5115435;28;20425;-48
2022/04/28 02:30:51;;;;;;;;;;;18.90;99.90;;;;;;5115381;28;20266;-49
2022/04/28 02:33:18;;;;;;;;;;;18.90;99.90;;;;;;5115575;28;19920;-46
2022/04/28 02:35:44;;;;;;;;;;;18.90;99.90;;;;;;5115257;28;19914;-49
2022/04/28 02:38:09;;;;;;;;;;;18.90;99.90;;;;;;5097007;28;19908;-48
2022/04/28 02:40:35;;;;;;;;;;;18.80;99.90;;;;;;5115511;28;19916;-50
2022/04/28 02:43:00;;;;;;;;;;;18.90;99.90;;;;;;5115141;28;20045;-47
2022/04/28 02:45:26;;;;;;;;;;;18.90;99.90;;;;;;5115127;28;20354;-47
2022/04/28 02:47:52;;;;;;;;;;;18.90;99.90;;;;;;5114894;28;20274;-48
2022/04/28 02:50:21;;;;;;;;;;;18.90;99.90;;;;;;5096791;28;19953;-50
2022/04/28 02:52:47;;;;;;;;;;;18.90;99.90;;;;;;5114726;28;19930;-51
2022/04/28 02:55:13;;;;;;;;;;;18.90;99.90;;;;;;5115012;28;20273;-46
2022/04/28 02:57:38;;;;;;;;;;;18.80;99.90;;;;;;5114634;28;20430;-47
2022/04/28 03:00:05;;;;;;;;;;;18.80;99.90;;;;;;5114916;28;19908;-46
2022/04/28 03:02:30;;;;;;;;;;;18.80;99.90;;;;;;5114798;28;19916;-47
2022/04/28 03:04:56;;;;;;;;;;;18.80;99.90;;;;;;5114524;28;19915;-48
2022/04/28 03:12:50;;;;;;;;;;;18.90;99.90;;;;;;5114510;28;19929;-47
2022/04/28 03:15:16;;;;;;;;;;;18.90;99.90;;;;;;5114399;28;19907;-47
2022/04/28 03:17:41;;;;;;;;;;;18.90;99.90;;;;;;5114973;28;19931;-48
2022/04/28 03:20:07;;;;;;;;;;;18.90;99.90;;;;;;5114368;28;20239;-47
2022/04/28 03:22:33;;;;;;;;;;;18.90;99.90;;;;;;5114501;28;20413;-50
2022/04/28 03:24:59;;;;;;;;;;;18.90;99.90;;;;;;5114837;28;20304;-47
2022/04/28 03:27:27;;;;;;;;;;;18.90;99.90;;;;;;5114231;28;19908;-47
2022/04/28 03:29:53;;;;;;;;;;;18.90;99.90;;;;;;5114500;28;19912;-47
2022/04/28 03:32:19;;;;;;;;;;;18.90;99.90;;;;;;5114053;28;19931;-49
2022/04/28 03:34:44;;;;;;;;;;;18.80;99.90;;;;;;5130104;28;19930;-48
2022/04/28 03:37:10;;;;;;;;;;;18.80;99.90;;;;;;5114068;28;19907;-49
2022/04/28 03:39:37;;;;;;;;;;;18.80;99.90;;;;;;5114380;28;19915;-47
2022/04/28 03:42:03;;;;;;;;;;;18.80;99.90;;;;;;5114334;28;19912;-46
2022/04/28 03:44:29;;;;;;;;;;;18.80;99.90;;;;;;5114465;28;20277;-47
2022/04/28 03:46:55;;;;;;;;;;;18.80;99.90;;;;;;5114242;28;19908;-49
2022/04/28 03:49:21;;;;;;;;;;;18.80;99.90;;;;;;5113960;28;19908;-48
2022/04/28 03:51:47;;;;;;;;;;;18.90;99.90;;;;;;5095982;28;19998;-49
2022/04/28 03:54:12;;;;;;;;;;;18.80;99.90;;;;;;5114151;28;20287;-44
2022/04/28 03:56:38;;;;;;;;;;;18.80;99.90;;;;;;5114369;28;19961;-46
2022/04/28 03:59:04;;;;;;;;;;;18.90;99.90;;;;;;5114105;28;20343;-48
2022/04/28 04:01:29;;;;;;;;;;;18.80;99.90;;;;;;5118180;28;20262;-47
2022/04/28 04:03:55;;;;;;;;;;;18.80;99.90;;;;;;5118269;28;20389;-48
2022/04/28 04:06:21;;;;;;;;;;;18.80;99.90;;;;;;5134096;27;20045;-45
2022/04/28 04:08:46;;;;;;;;;;;18.80;99.90;;;;;;5118119;28;19912;-48
2022/04/28 04:11:12;;;;;;;;;;;18.90;99.90;;;;;;5118179;28;19907;-47
2022/04/28 04:13:38;;;;;;;;;;;18.80;99.90;;;;;;5117831;28;20266;-46
2022/04/28 04:16:04;;;;;;;;;;;18.80;99.90;;;;;;5117968;28;20274;-47
2022/04/28 04:18:30;;;;;;;;;;;18.90;99.90;;;;;;5099640;28;20322;-48
2022/04/28 04:20:55;;;;;;;;;;;18.80;99.90;;;;;;5117493;28;20014;-48
2022/04/28 04:23:21;;;;;;;;;;;18.80;99.90;;;;;;5117787;28;20273;-47
2022/04/28 04:25:46;;;;;;;;;;;18.80;99.90;;;;;;5117556;28;19953;-45
2022/04/28 04:28:12;;;;;;;;;;;18.80;99.90;;;;;;5117813;28;19908;-47
2022/04/28 04:33:22;;;;;;;;;;;18.80;99.90;;;;;;5117833;28;20007;-49
2022/04/28 04:35:47;;;;;;;;;;;18.90;99.90;;;;;;5099091;28;19943;-48
2022/04/28 04:38:13;;;;;;;;;;;18.80;99.90;;;;;;5117834;28;19935;-51
2022/04/28 04:40:38;;;;;;;;;;;18.90;99.90;;;;;;5117527;28;19916;-46
2022/04/28 04:43:05;;;;;;;;;;;18.90;99.90;;;;;;5117002;28;19964;-48
2022/04/28 04:45:31;;;;;;;;;;;18.80;99.90;;;;;;5116888;28;19991;-48
2022/04/28 04:47:56;;;;;;;;;;;18.90;99.90;;;;;;5117020;28;20370;-48
2022/04/28 04:50:22;;;;;;;;;;;18.80;99.90;;;;;;5117348;28;20441;-46
2022/04/28 04:52:48;;;;;;;;;;;18.90;99.90;;;;;;5117092;28;20374;-48
2022/04/28 04:55:13;;;;;;;;;;;18.90;99.90;;;;;;5116816;28;19915;-50
2022/04/28 04:57:39;;;;;;;;;;;18.80;99.90;;;;;;5117100;28;20354;-49
2022/04/28 05:00:07;;;;;;;;;;;18.90;99.90;;;;;;5117019;28;19908;-46
2022/04/28 05:02:32;;;;;;;;;;;18.80;99.90;;;;;;5116544;28;20006;-48
2022/04/28 05:04:58;;;;;;;;;;;18.90;99.90;;;;;;5116817;28;19943;-48
2022/04/28 05:07:28;;;;;;;;;;;18.90;99.90;;;;;;5116534;28;20319;-50
2022/04/28 05:09:54;;;;;;;;;;;18.80;99.90;;;;;;5116685;28;19912;-47
2022/04/28 05:12:19;;;;;;;;;;;18.80;99.90;;;;;;5116145;28;19908;-51
2022/04/28 05:14:45;;;;;;;;;;;18.90;99.90;;;;;;5116267;28;20366;-48
2022/04/28 05:17:11;;;;;;;;;;;18.90;99.90;;;;;;5116504;28;19947;-50
2022/04/28 05:19:36;;;;;;;;;;;18.90;99.90;;;;;;5116197;28;19915;-46
2022/04/28 05:22:02;;;;;;;;;;;18.90;99.90;;;;;;5116414;28;19965;-46
2022/04/28 05:24:27;;;;;;;;;;;18.80;99.90;;;;;;5116525;28;19912;-48
2022/04/28 05:26:53;;;;;;;;;;;18.80;99.90;;;;;;5116242;28;19911;-47
2022/04/28 05:29:18;;;;;;;;;;;18.90;99.90;;;;;;5116243;28;19911;-47
2022/04/28 05:31:44;;;;;;;;;;;18.90;99.90;;;;;;5116174;28;19920;-47
2022/04/28 05:34:10;;;;;;;;;;;18.90;99.90;;;;;;5115900;28;19919;-48
2022/04/28 05:36:36;;;;;;;;;;;18.90;99.90;;;;;;5116156;28;19908;-50
2022/04/28 05:39:02;;;;;;;;;;;18.90;99.90;;;;;;5115868;28;19912;-47
2022/04/28 05:41:28;;;;;;;;;;;18.90;99.90;;;;;;5097673;28;19919;-48
2022/04/28 05:46:39;;;;;;;;;;;18.90;99.90;;;;;;5115904;28;19915;-47
2022/04/28 05:49:05;;;;;;;;;;;18.90;99.90;;;;;;5115489;28;19907;-47
2022/04/28 05:51:30;;;;;;;;;;;18.90;99.90;;;;;;5115803;28;19946;-49
2022/04/28 05:53:57;;;;;;;;;;;18.90;99.90;;;;;;5115337;28;20227;-46
2022/04/28 05:56:22;;;;;;;;;;;18.90;99.90;;;;;;5115200;28;19995;-46
2022/04/28 05:58:48;;;;;;;;;;;18.90;99.90;;;;;;5115192;28;20378;-46
2022/04/28 06:01:13;;;;;;;;;;;18.60;99.90;;;;;;5115315;28;20289;-50
2022/04/28 06:03:41;;;;;;;;;;;18.30;99.90;;;;;;5115353;28;19915;-49
2022/04/28 06:06:07;;;;;;;;;;;18.10;99.90;;;;;;5115213;28;19907;-49
2022/04/28 06:08:32;;;;;;;;;;;18.40;99.90;;;;;;5115322;28;19953;-45
2022/04/28 06:10:58;;;;;;;;;;;18.50;99.90;;;;;;5114930;28;20281;-49
2022/04/28 06:13:24;;;;;;;;;;;18.70;99.90;;;;;;5114797;28;19934;-45
2022/04/28 06:15:49;;;;;;;;;;;18.90;99.90;;;;;;5115035;28;19956;-49
2022/04/28 06:18:15;;;;;;;;;;;18.90;99.90;;;;;;5115039;28;19967;-52
2022/04/28 06:20:40;;;;;;;;;;;19.00;99.90;;;;;;5114684;28;20350;-48
2022/04/28 06:23:06;;;;;;;;;;;19.00;99.90;;;;;;5114144;28;20002;-51
2022/04/28 06:25:32;;;;;;;;;;;19.00;99.90;;;;;;5115173;28;20365;-48
2022/04/28 06:27:57;;;;;;;;;;;19.00;99.90;;;;;;5114630;28;20370;-46
2022/04/28 06:30:23;;;;;;;;;;;19.00;99.90;;;;;;5096639;28;19916;-45
2022/04/28 06:32:49;;;;;;;;;;;19.00;99.90;;;;;;5115103;28;19951;-47
2022/04/28 06:35:15;;;;;;;;;;;19.00;99.90;;;;;;5115034;28;19908;-48
2022/04/28 06:37:41;;;;;;;;;;;19.00;99.90;;;;;;5114760;28;19915;-46
2022/04/28 06:40:07;;;;;;;;;;;19.00;99.90;;;;;;5096726;28;19973;-47
2022/04/28 06:42:32;;;;;;;;;;;18.90;99.90;;;;;;5114129;28;19912;-47
2022/04/28 06:44:58;;;;;;;;;;;19.00;99.90;;;;;;5114743;28;19919;-49
2022/04/28 06:47:23;;;;;;;;;;;18.90;99.90;;;;;;5114325;28;19908;-48
2022/04/28 06:49:49;;;;;;;;;;;18.90;99.90;;;;;;5114764;28;19908;-48
2022/04/28 06:52:14;;;;;;;;;;;18.90;99.90;;;;;;5114077;28;19908;-46
2022/04/28 06:54:40;;;;;;;;;;;18.90;99.90;;;;;;5114320;28;19908;-48
2022/04/28 06:57:06;;;;;;;;;;;18.90;99.90;;;;;;5114170;28;20002;-46
2022/04/28 06:59:31;;;;;;;;;;;18.90;99.90;;;;;;5114614;28;19915;-47
2022/04/28 07:01:57;;;;;;;;;;;18.90;99.90;;;;;;5114002;28;19911;-47
2022/04/28 07:04:22;;;;;;;;;;;19.00;99.90;;;;;;5114533;28;19915;-48
2022/04/28 07:06:48;;;;;;;;;;;19.00;99.90;;;;;;5095842;28;20294;-46
2022/04/28 07:09:13;;;;;;;;;;;19.00;99.90;;;;;;5113903;28;19908;-48
2022/04/28 07:11:39;;;;;;;;;;;19.00;99.90;;;;;;5113995;28;19915;-47
2022/04/28 07:14:04;;;;;;;;;;;18.90;99.90;;;;;;5114036;28;20317;-46
2022/04/28 07:16:30;;;;;;;;;;;19.00;99.90;;;;;;5114296;28;20350;-48
2022/04/28 07:18:55;;;;;;;;;;;19.00;99.90;;;;;;5114011;28;19914;-45
2022/04/28 07:21:21;;;;;;;;;;;19.00;99.90;;;;;;5113871;28;19918;-47
2022/04/28 07:23:46;;;;;;;;;;;19.10;99.90;;;;;;5113900;28;20324;-48
2022/04/28 07:26:12;;;;;;;;;;;19.00;99.90;;;;;;5114389;28;19912;-47
2022/04/28 07:28:37;;;;;;;;;;;19.00;99.90;;;;;;5113777;28;19908;-47
2022/04/28 07:31:03;;;;;;;;;;;19.10;99.90;;;;;;5114034;28;20015;-48
2022/04/28 07:33:29;;;;;;;;;;;19.00;99.90;;;;;;5115146;28;20254;-46
2022/04/28 07:35:54;;;;;;;;;;;19.10;99.90;;;;;;5117928;28;19908;-47
2022/04/28 07:38:21;;;;;;;;;;;19.00;99.90;;;;;;5118435;28;19931;-48
2022/04/28 07:40:47;;;;;;;;;;;19.00;99.90;;;;;;5118080;28;20258;-50
2022/04/28 07:43:13;;;;;;;;;;;19.00;99.90;;;;;;5118152;28;19916;-50
2022/04/28 07:45:38;;;;;;;;;;;19.00;99.90;;;;;;5118245;28;19962;-47
2022/04/28 07:48:05;;;;;;;;;;;19.00;99.90;;;;;;5118107;28;19915;-46
2022/04/28 07:50:30;;;;;;;;;;;19.00;99.90;;;;;;5118447;28;20392;-48
2022/04/28 07:52:56;;;;;;;;;;;19.00;99.90;;;;;;5117918;28;19911;-50
2022/04/28 07:55:22;;;;;;;;;;;19.00;99.90;;;;;;5117903;28;20022;-49
2022/04/28 07:57:47;;;;;;;;;;;19.00;99.90;;;;;;5117757;28;19907;-49
2022/04/28 08:00:13;;;;;;;;;;;19.00;99.90;;;;;;5117618;28;20393;-49
2022/04/28 08:02:39;;;;;;;;;;;19.00;99.90;;;;;;5117633;28;20305;-47
2022/04/28 08:05:05;;;;;;;;;;;19.00;99.90;;;;;;5117623;28;19919;-49
2022/04/28 08:07:34;;;;;;;;;;;19.10;99.90;;;;;;5117660;28;19908;-50
2022/04/28 08:10:00;;;;;;;;;;;19.00;99.90;;;;;;5117792;28;20048;-49
2022/04/28 08:12:25;;;;;;;;;;;19.00;99.90;;;;;;5117516;28;20362;-48
2022/04/28 08:14:51;;;;;;;;;;;19.00;99.90;;;;;;5117772;28;19946;-50
2022/04/28 08:17:16;;;;;;;;;;;19.00;99.90;;;;;;5117686;28;20278;-46
2022/04/28 08:19:42;;;;;;;;;;;19.10;99.90;;;;;;5117140;28;19915;-47
2022/04/28 08:22:08;;;;;;;;;;;19.10;99.90;;;;;;5117333;28;19912;-51
2022/04/28 08:24:33;;;;;;;;;;;19.00;99.90;;;;;;5117454;28;20375;-46
2022/04/28 08:26:59;;;;;;;;;;;19.00;99.90;;;;;;5116882;28;19931;-47
2022/04/28 08:29:24;;;;;;;;;;;19.00;99.90;;;;;;5117275;28;19907;-46
2022/04/28 08:31:50;;;;;;;;;;;19.00;99.90;;;;;;5117059;28;19965;-49
2022/04/28 08:34:17;;;;;;;;;;;19.00;99.90;;;;;;5117007;28;20370;-49
2022/04/28 08:36:43;;;;;;;;;;;19.00;99.90;;;;;;5117175;28;19920;-48
2022/04/28 08:39:09;;;;;;;;;;;19.00;99.90;;;;;;5117011;28;19908;-46
2022/04/28 08:41:35;;;;;;;;;;;19.00;99.90;;;;;;5116728;28;19937;-50
2022/04/28 08:44:02;;;;;;;;;;;19.00;99.90;;;;;;5117378;28;19954;-48
2022/04/28 08:49:12;;;;;;;;;;;19.10;99.90;;;;;;5116756;28;20003;-50
2022/04/28 08:51:39;;;;;;;;;;;19.00;99.90;;;;;;5116788;28;19945;-47
2022/04/28 08:54:05;;;;;;;;;;;19.00;99.90;;;;;;5116872;28;19908;-52
2022/04/28 08:56:30;;;;;;;;;;;19.00;99.90;;;;;;5116669;28;19915;-47
2022/04/28 08:58:56;;;;;;;;;;;19.10;99.90;;;;;;5116565;28;19989;-49
2022/04/28 09:01:25;;;;;;;;;;;19.10;99.90;;;;;;5116507;28;19919;-48
2022/04/28 09:03:51;;;;;;;;;;;19.00;99.90;;;;;;5116589;28;20060;-47
2022/04/28 09:06:17;;;;;;;;;;;19.10;99.90;;;;;;5116742;28;19953;-47
2022/04/28 09:08:43;;;;;;;;;;;19.00;99.90;;;;;;5116392;28;20366;-47
2022/04/28 09:11:16;;;;;;;;;;;19.10;99.90;;;;;;5116682;28;20282;-45
2022/04/28 09:16:25;;;;;;;;;;;19.10;99.90;;;;;;5116355;28;20222;-46
2022/04/28 09:18:53;;;;;;;;;;;19.10;99.90;;;;;;5116184;28;20358;-48
2022/04/28 09:21:19;;;;;;;;;;;19.10;99.90;;;;;;5116187;28;19916;-51
2022/04/28 09:23:44;;;;;;;;;;;19.10;99.90;;;;;;5116466;28;20006;-51
2022/04/28 09:26:10;;;;;;;;;;;19.00;99.90;;;;;;5116212;28;19961;-49
2022/04/28 09:28:36;;;;;;;;;;;19.10;99.90;;;;;;5098059;28;19908;-48
2022/04/28 09:31:01;;;;;;;;;;;19.10;99.90;;;;;;5115848;28;19908;-47
2022/04/28 09:33:28;;;;;;;;;;;19.10;99.90;;;;;;5115840;28;19927;-49
2022/04/28 09:35:54;;;;;;;;;;;19.00;99.90;;;;;;5115720;28;19908;-46
2022/04/28 09:38:20;;;;;;;;;;;19.00;99.90;;;;;;5115699;28;19987;-47
2022/04/28 09:43:31;;;;;;;;;;;19.10;99.90;;;;;;5116150;28;19956;-46
2022/04/28 09:45:57;;;;;;;;;;;19.00;99.90;;;;;;5115994;28;19908;-45
2022/04/28 09:48:26;;;;;;;;;;;19.00;99.90;;;;;;5097414;28;19927;-46
2022/04/28 09:50:57;;;;;;;;;;;19.10;99.90;;;;;;5116097;28;19908;-48
2022/04/28 09:53:22;;;;;;;;;;;19.00;99.90;;;;;;5115969;28;20388;-49
2022/04/28 09:55:50;;;;;;;;;;;19.00;99.90;;;;;;5115481;28;19912;-45
2022/04/28 09:58:17;;;;;;;;;;;19.00;99.90;;;;;;5096359;28;19937;-47
2022/04/28 10:00:43;;;;;;;;;;;19.10;99.90;;;;;;5115412;28;19916;-47
2022/04/28 10:03:11;;;;;;;;;;;19.10;99.90;;;;;;5115382;28;19918;-47
2022/04/28 10:05:37;;;;;;;;;;;19.10;99.90;;;;;;5115462;28;19953;-50
2022/04/28 10:08:02;;;;;;;;;;;19.10;99.90;;;;;;5115024;28;19908;-51
2022/04/28 10:10:28;;;;;;;;;;;19.10;99.90;;;;;;5115106;28;19908;-48
2022/04/28 10:12:55;;;;;;;;;;;19.10;99.90;;;;;;5097291;28;19918;-46
2022/04/28 10:15:21;;;;;;;;;;;19.10;99.90;;;;;;5115478;28;19962;-49
2022/04/28 10:17:55;;;;;;;;;;;19.10;99.90;;;;;;5115274;28;19908;-46
2022/04/28 10:20:28;;;;;;;;;;;19.10;99.90;;;;;;5114852;28;19908;-50
2022/04/28 10:22:55;;;;;;;;;;;19.10;99.90;;;;;;5114944;28;19947;-51
2022/04/28 10:32:22;;;;;;;;;;;19.10;99.90;;;;;;5114990;28;19914;-48
2022/04/28 10:33:49;;;;;;;;;;;19.10;99.90;;;;;;5114696;28;19972;-50
2022/04/28 10:36:15;;;;;;;;;;;19.10;99.90;;;;;;5114460;28;19911;-50
2022/04/28 10:39:01;;;;;;;;;;;19.10;99.90;;;;;;5114450;28;20366;-49
2022/04/28 10:41:28;;;;;;;;;;;19.10;99.90;;;;;;5114430;28;19977;-50
2022/04/28 10:43:56;;;;;;;;;;;19.10;99.90;;;;;;5096594;28;19943;-46
2022/04/28 10:46:26;;;;;;;;;;;19.00;99.90;;;;;;5096339;28;20297;-50
2022/04/28 10:48:53;;;;;;;;;;;19.10;99.90;;;;;;5114550;28;19908;-49
2022/04/28 10:51:20;;;;;;;;;;;19.10;99.90;;;;;;5114316;28;19912;-50
2022/04/28 10:54:06;;;;;;;;;;;19.10;99.90;;;;;;5114520;28;19908;-48
2022/04/28 10:56:44;;;;;;;;;;;19.10;99.90;;;;;;5114979;28;19915;-48
2022/04/28 10:59:40;;;;;;;;;;;19.00;99.90;;;;;;5114085;28;19908;-50
2022/04/28 11:02:11;;;;;;;;;;;19.10;99.90;;;;;;5096249;28;19916;-50
2022/04/28 11:04:37;;;;;;;;;;;19.10;99.90;;;;;;5114185;28;19911;-50
2022/04/28 11:07:08;;;;;;;;;;;19.10;99.90;;;;;;5114566;28;20322;-50
2022/04/28 11:09:50;;;;;;;;;;;19.10;99.90;;;;;;5113463;28;20358;-47
2022/04/28 11:12:19;;;;;;;;;;;19.10;99.90;;;;;;5114279;28;19909;-49
2022/04/28 11:15:08;;;;;;;;;;;19.10;99.90;;;;;;5114451;28;19908;-47
2022/04/28 11:17:38;;;;;;;;;;;19.10;99.90;;;;;;5108445;28;20315;-48
2022/04/28 11:20:07;;;;;;;;;;;19.10;99.90;;;;;;5114198;28;19911;-48
2022/04/28 11:22:33;;;;;;;;;;;19.10;99.90;;;;;;5113996;28;20317;-48
2022/04/28 11:24:59;;;;;;;;;;;19.10;99.90;;;;;;5113947;28;19919;-45
2022/04/28 11:27:27;;;;;;;;;;;19.10;99.90;;;;;;5113481;28;19916;-48
2022/04/28 11:29:56;;;;;;;;;;;19.10;99.90;;;;;;5114101;28;19908;-49
2022/04/28 11:32:22;;;;;;;;;;;19.10;99.90;;;;;;5113677;28;19941;-49
2022/04/28 11:34:48;;;;;;;;;;;19.10;99.90;;;;;;5114007;28;19915;-48
2022/04/28 11:37:15;;;;;;;;;;;19.10;99.90;;;;;;5095594;28;20365;-50
2022/04/28 11:39:44;;;;;;;;;;;19.10;99.90;;;;;;5113594;28;19953;-48
2022/04/28 11:42:10;;;;;;;;;;;19.10;99.90;;;;;;5113689;28;19911;-48
2022/04/28 11:44:43;;;;;;;;;;;19.00;99.90;;;;;;5113840;28;20016;-46
2022/04/28 11:47:08;;;;;;;;;;;19.10;99.90;;;;;;5095651;28;20258;-47
2022/04/28 11:49:38;;;;;;;;;;;19.10;99.90;;;;;;5113402;28;19907;-48
2022/04/28 11:52:16;;;;;;;;;;;19.10;99.90;;;;;;5113446;28;19915;-49
2022/04/28 11:54:41;;;;;;;;;;;19.00;99.90;;;;;;5113736;28;19961;-47
2022/04/28 11:57:10;;;;;;;;;;;19.10;99.90;;;;;;5113766;28;19907;-47
2022/04/28 11:59:39;;;;;;;;;;;19.10;99.90;;;;;;5113831;28;19908;-49
2022/04/28 12:02:21;;;;;;;;;;;19.10;99.90;;;;;;5113700;28;19957;-48
2022/04/28 12:04:47;;;;;;;;;;;19.00;99.90;;;;;;5114074;28;20247;-48
2022/04/28 12:07:22;;;;;;;;;;;19.10;99.90;;;;;;5113446;28;20478;-47
2022/04/28 12:15:19;;;;;;;;;;;19.10;99.90;;;;;;5113737;28;19918;-47
2022/04/28 12:21:01;;;;;;;;;;;19.00;99.90;;;;;;5114784;28;19914;-49
2022/04/28 12:23:31;;;;;;;;;;;19.00;99.90;;;;;;5117715;28;20243;-50
2022/04/28 12:26:00;;;;;;;;;;;19.00;99.90;;;;;;5098939;28;19961;-46
2022/04/28 12:28:30;;;;;;;;;;;19.00;99.90;;;;;;5117129;28;20278;-45
2022/04/28 12:30:55;;;;;;;;;;;19.00;99.90;;;;;;5117512;28;20327;-46
2022/04/28 12:33:21;;;;;;;;;;;19.00;99.90;;;;;;5117000;28;19926;-48
2022/04/28 12:35:47;;;;;;;;;;;18.90;99.90;;;;;;5116937;28;19955;-48
2022/04/28 12:38:22;;;;;;;;;;;19.00;99.90;;;;;;5117217;28;19944;-50
2022/04/28 12:40:48;;;;;;;;;;;19.00;99.90;;;;;;5117394;28;19916;-47
2022/04/28 12:43:33;;;;;;;;;;;18.90;99.90;;;;;;5117022;28;19912;-46
2022/04/28 12:45:59;;;;;;;;;;;18.90;99.90;;;;;;5117593;28;19908;-49
2022/04/28 12:48:26;;;;;;;;;;;18.90;99.90;;;;;;5117010;28;20014;-49
2022/04/28 12:51:10;;;;;;;;;;;18.90;99.90;;;;;;5116531;28;20370;-46
2022/04/28 12:53:36;;;;;;;;;;;18.90;99.90;;;;;;5116231;28;19907;-49
2022/04/28 12:56:07;;;;;;;;;;;18.90;99.90;;;;;;5116527;28;19952;-45
2022/04/28 12:58:35;;;;;;;;;;;18.90;99.90;;;;;;5117142;28;19908;-49
2022/04/28 13:01:00;;;;;;;;;;;18.90;99.90;;;;;;5116899;28;20006;-45
2022/04/28 13:03:29;;;;;;;;;;;18.90;99.90;;;;;;5116696;28;20385;-48
2022/04/28 13:05:55;;;;;;;;;;;18.90;99.90;;;;;;5116763;28;20007;-46
2022/04/28 13:08:21;;;;;;;;;;;18.80;99.90;;;;;;5116345;28;19907;-50
2022/04/28 13:10:46;;;;;;;;;;;18.90;99.90;;;;;;5098059;28;19951;-51
2022/04/28 13:13:12;;;;;;;;;;;18.90;99.90;;;;;;5116180;28;20358;-48
2022/04/28 13:15:37;;;;;;;;;;;18.90;99.90;;;;;;5116476;28;20369;-46
2022/04/28 13:18:03;;;;;;;;;;;18.90;99.90;;;;;;5098061;28;19965;-51
2022/04/28 13:20:29;;;;;;;;;;;18.80;99.90;;;;;;5116140;28;19934;-47
2022/04/28 13:22:54;;;;;;;;;;;18.90;99.90;;;;;;5116145;28;19916;-46
2022/04/28 13:25:20;;;;;;;;;;;18.90;99.90;;;;;;5115917;28;19907;-50
2022/04/28 13:27:46;;;;;;;;;;;18.90;99.90;;;;;;5116068;28;19956;-48
2022/04/28 13:30:13;;;;;;;;;;;18.90;99.90;;;;;;5116053;28;19989;-46
2022/04/28 13:32:39;;;;;;;;;;;18.90;99.90;;;;;;5097141;28;19926;-45
2022/04/28 13:35:05;;;;;;;;;;;18.80;99.90;;;;;;5116116;28;19908;-47
2022/04/28 13:37:31;;;;;;;;;;;18.90;99.90;;;;;;5115971;28;20311;-52
2022/04/28 13:39:56;;;;;;;;;;;18.90;99.90;;;;;;5115897;28;20369;-48
2022/04/28 13:42:22;;;;;;;;;;;18.60;96.80;;;;;;5115628;28;19912;-49
2022/04/28 13:44:47;;;;;;;;;;;18.40;94.80;;;;;;5097458;28;19911;-48
2022/04/28 13:47:13;;;;;;;;;;;18.30;94.00;;;;;;5115615;28;19911;-50
2022/04/28 13:49:38;;;;;;;;;;;18.10;92.80;;;;;;5115498;28;19915;-53
2022/04/28 13:52:04;;;;;;;;;;;18.00;92.40;;;;;;5115144;28;19908;-51
2022/04/28 13:54:30;;;;;;;;;;;17.90;92.10;;;;;;5115017;28;20347;-54
2022/04/28 13:56:55;;;;;;;;;;;17.80;92.00;;;;;;5115361;28;19908;-52
2022/04/28 13:59:21;;;;;;;;;;;17.70;92.30;;;;;;5115659;28;19950;-44
2022/04/28 14:01:46;;;;;;;;;;;17.60;93.10;;;;;;5115214;28;20242;-42
2022/04/28 14:04:14;;;;;;;;;;;17.80;94.80;;;;;;5115186;28;19911;-41
2022/04/28 14:06:40;;;;;;;;;;;18.00;96.10;;;;;;5115196;28;19914;-40
2022/04/28 14:09:05;;;;;;;;;;;18.10;96.90;;;;;;5115283;28;20250;-40
2022/04/28 14:11:33;;;;;;;;;;;18.20;97.40;;;;;;5115195;28;19915;-39
2022/04/28 14:13:58;;;;;;;;;;;18.30;98.10;;;;;;5115083;28;19908;-40
2022/04/28 14:16:24;;;;;;;;;;;18.30;98.50;;;;;;5114885;28;19908;-40
2022/04/28 14:18:49;;;;;;;;;;;18.40;98.90;;;;;;5115040;28;20081;-41
2022/04/28 14:21:15;;;;;;;;;;;18.50;99.30;;;;;;5115159;28;19965;-40
2022/04/28 14:23:41;;;;;;;;;;;18.50;99.60;;;;;;5115102;28;19996;-39
2022/04/28 14:26:07;;;;;;;;;;;18.60;99.90;;;;;;5114909;28;20343;-40
2022/04/28 14:28:33;;;;;;;;;;;18.70;99.90;;;;;;5114893;28;19915;-40
2022/04/28 14:30:59;;;;;;;;;;;18.70;99.90;;;;;;5114600;28;19947;-40
2022/04/28 14:33:24;;;;;;;;;;;18.70;99.90;;;;;;5114793;28;20377;-41
2022/04/28 14:35:52;;;;;;;;;;;18.70;99.90;;;;;;5114434;28;19912;-44
2022/04/28 14:38:19;;;;;;;;;;;18.80;99.90;;;;;;5096658;28;19911;-43
2022/04/28 14:40:44;;;;;;;;;;;18.80;99.90;;;;;;5114753;28;20266;-42
2022/04/28 14:43:10;;;;;;;;;;;18.80;99.90;;;;;;5114344;28;19912;-40
2022/04/28 14:45:36;;;;;;;;;;;18.80;99.90;;;;;;5114821;28;19914;-41
2022/04/28 14:48:02;;;;;;;;;;;18.80;99.90;;;;;;5114612;28;19908;-39
2022/04/28 14:53:12;;;;;;;;;;;18.80;99.90;;;;;;5114284;28;19915;-41
2022/04/28 14:55:38;;;;;;;;;;;18.90;99.90;;;;;;5096099;28;19937;-44
2022/04/28 14:58:09;;;;;;;;;;;18.90;99.90;;;;;;5114317;28;20026;-43